Little Rock Air Force Base
KLRF : now visible

Airfield :











YOU CAN JOIN US ON...

 
LOGIN :

Register | Disclaimer

   EN    FR    IT 

 









Legend :    VFR   Marginal VFR   IFR   Intensive IFR   Very Intensive IFR
Visi :
Ceiling :
>= 8 km
>= 3000ft
5 to 8 km
1000 to 3000 ft
1500m to 5 km
500 to 1000 ft
800 to 1500m
200 to 500 ft
< 800m
< 200 ft
Symbols :   Thunderstorms  Fog  Heavy snow  Heavy precipitations  Wind > 20 kt






- Airport Elevation : 311 ft


KLRF - Little Rock Air Force Base

CURRENT METAR :
  • 110156Z AUTO 09007KT 10SM OVC050 14/10 A3010 RMK AO2 SLP195 T01420100 $

EXPIRED METARs :
  • 110056Z AUTO 06010KT 10SM OVC055 15/10 A3006 RMK AO2 SLP182 T01450099 $
  • 102356Z AUTO 06008KT 10SM OVC055 15/10 A3007 RMK AO2 SLP185 60000 T01530101 10167 20142 58006 $

TAF TAF KLRF
Valid from the 10 at 23:00 until the 12 at 05:00 UTC


102300Z 1023/1205 06009KT 9999 SCT040 BKN060 QNH3006INS
BECMG 1109/1110 02012KT 9000 -SHRA BKN030 OVC070 QNH3004INS
BECMG 1114/1115 03009KT 9999 NSW BKN035 OVC080 QNH3010INS
BECMG 1116/1117 06012KT 8000 -SHRA BKN030 OVC060 QNH3012INS
TEMPO 1121/1124 08010G15KT 6000 -TSRA BKN020CB OVC050
BECMG 1200/1201 07012KT 8000 -SHRA BKN025 OVC060 QNH3009INS
BECMG 1203/1204 02009KT 9999 NSW BKN040 QNH3013INS TX18/1120Z TN11/1109Z
KZME FIR / North America



MET'MAP, your aeronautical weather chart ! - Copyright ORBIFLY December 2007 - Disclaimer

ORBIFLY MET'MAP TEAM :

Programming & Development : Alexandra Zaïnal
Concept & original design : Baudouin d'Aumeries
Assistance for programming : Marc-Olivier Méhu
Technical & hardware support : Manuel Goepfert

Contact : metmap@orbifly.com




SOURCES & CREDITS :

   NOAA       Earth
Advisory